CST,Max TemperatureF,Mean TemperatureF,Min TemperatureF,Max Dew PointF,MeanDew PointF,Min DewpointF,Max Humidity, Mean Humidity, Min Humidity, Max Sea Level PressureIn, Mean Sea Level PressureIn, Min Sea Level PressureIn, Max VisibilityMiles, Mean VisibilityMiles, Min VisibilityMiles, Max Wind SpeedMPH, Mean Wind SpeedMPH, Max Gust SpeedMPH,PrecipitationIn, CloudCover, Events, WindDirDegrees
2013-2-1,24,18,12,4,-4,-13,47,35,27,30.49,30.39,30.22,10,10,10,16,8,25,0.00,2,Snow,282
2013-2-2,41,32,23,29,13,2,91,49,27,30.31,30.16,30.04,10,10,10,17,5,23,0.00,7,,219
2013-2-3,35,28,22,31,20,10,96,65,42,30.17,30.09,29.98,10,8,1,16,4,24,0.07,6,Snow,271
2013-2-4,50,35,20,24,12,-18,92,46,5,30.12,29.98,29.89,10,9,4,15,4,25,0.00,4,Rain,209
2013-2-5,56,45,34,28,20,2,55,39,11,30.07,29.96,29.90,10,10,10,13,5,17,0.01,4,,249
2013-2-6,52,40,27,28,15,-8,92,41,8,30.23,30.17,30.08,10,9,3,7,1,,0.00,0,,16
2013-2-7,64,50,36,32,12,-18,53,30,4,30.13,30.00,29.88,10,10,10,13,3,16,0.00,2,,172
2013-2-8,49,41,33,47,24,14,92,55,39,30.35,30.14,29.87,10,10,5,15,8,20,0.20,8,Rain,331
2013-2-9,51,38,25,14,6,-30,58,31,4,30.38,30.28,30.15,10,10,10,12,3,17,0.00,2,,76
2013-2-10,60,52,44,52,14,-27,89,35,4,30.15,30.00,29.85,10,9,3,20,8,30,0.20,6,Rain,172
2013-2-11,56,44,32,52,19,-3,85,36,11,30.15,30.04,29.89,10,10,10,21,11,28,0.00,1,,242
2013-2-12,50,38,26,28,8,-25,94,39,4,30.18,30.06,29.85,10,10,5,10,1,,0.00,2,,52
2013-2-13,42,38,34,30,21,12,77,52,29,29.99,29.86,29.73,10,9,3,14,6,22,0.09,7,Rain,328
2013-2-14,57,45,33,31,19,-7,90,49,7,30.00,29.97,29.93,10,9,5,17,6,24,0.00,0,,213
2013-2-15,46,36,26,30,13,-6,90,40,12,30.18,30.10,30.01,10,10,10,15,3,22,0.00,5,Rain,326
2013-2-16,34,27,20,14,0,-33,75,38,5,30.18,30.13,30.09,10,10,10,16,3,22,0.00,1,Snow,300
2013-2-17,37,26,15,5,-4,-30,58,32,5,30.27,30.20,30.17,10,10,10,10,2,,0.00,0,,207
2013-2-18,58,46,34,26,-3,-33,45,17,4,30.17,30.02,29.82,10,10,5,22,10,31,0.07,3,Rain,187
2013-2-19,45,36,27,40,9,-22,87,36,6,30.21,30.04,29.81,10,9,2,18,13,28,0.09,3,Rain,269
2013-2-20,34,26,18,4,-5,-24,49,27,7,30.33,30.27,30.22,10,10,10,8,4,17,0.00,0,,317
2013-2-21,42,32,22,32,1,-36,86,37,4,30.28,30.12,29.88,10,9,2,17,7,25,0.50,3,Rain-Snow,66
2013-2-22,59,49,39,45,36,20,94,64,22,30.02,29.95,29.85,10,10,4,20,8,26,0.03,6,Rain,224
2013-2-23,46,38,29,36,29,25,88,70,45,30.02,29.98,29.91,10,10,10,8,3,,0.00,2,,302
2013-2-24,50,36,23,27,25,23,100,66,34,30.15,30.08,29.99,10,9,5,7,1,,0.00,0,,50
2013-2-25,58,44,30,29,27,25,81,53,30,30.07,29.92,29.64,10,10,10,17,7,22,0.00,2,,63
2013-2-26,52,46,39,52,42,29,100,83,43,29.66,29.51,29.41,10,9,3,24,13,31,0.34,8,Rain-Thunderstorm,184
2013-2-27,40,36,32,37,34,32,100,91,80,29.85,29.79,29.67,10,7,2,21,14,29,0.03,8,Rain-Snow,242
2013-2-28,35,33,31,34,30,28,100,87,82,30.03,29.95,29.84,10,8,4,13,7,18,0.02,8,Snow,269